createdAt,value
2019-05-09T00:02:21.144Z,75.94
2019-05-09T00:04:48.222Z,75.72
2019-05-09T00:07:15.287Z,75.97
2019-05-09T00:09:44.082Z,76.60
2019-05-09T00:12:11.460Z,77.17
2019-05-09T00:14:38.496Z,77.06
2019-05-09T00:17:05.736Z,76.85
2019-05-09T00:19:33.545Z,76.89
2019-05-09T00:22:03.089Z,77.20
2019-05-09T00:24:29.621Z,77.41
2019-05-09T00:26:56.744Z,77.21
2019-05-09T00:29:30.445Z,77.35
2019-05-09T00:32:10.005Z,77.32
2019-05-09T00:34:46.988Z,77.29
2019-05-09T00:37:14.088Z,76.99
2019-05-09T00:39:42.884Z,77.01
2019-05-09T00:42:10.171Z,77.06
2019-05-09T00:44:39.336Z,77.20
2019-05-09T00:47:19.139Z,76.75
2019-05-09T00:49:46.223Z,76.27
2019-05-09T00:52:14.148Z,76.27
2019-05-09T00:54:43.684Z,76.67
2019-05-09T00:57:13.754Z,76.96
2019-05-09T00:59:40.898Z,76.85
2019-05-09T01:02:07.952Z,76.99
2019-05-09T01:04:35.326Z,76.86
2019-05-09T01:07:04.541Z,76.88
2019-05-09T01:09:33.409Z,77.27
2019-05-09T01:12:00.564Z,77.37
2019-05-09T01:14:27.915Z,77.43
2019-05-09T01:16:54.987Z,76.93
2019-05-09T01:19:23.299Z,76.57
2019-05-09T01:21:54.207Z,76.50
2019-05-09T01:24:23.247Z,76.41
2019-05-09T01:26:50.617Z,76.33
2019-05-09T01:29:17.888Z,76.45
2019-05-09T01:31:44.939Z,76.51
2019-05-09T01:34:18.958Z,76.67
2019-05-09T01:37:04.447Z,77.01
2019-05-09T01:39:33.636Z,77.11
2019-05-09T01:42:03.097Z,77.40
2019-05-09T01:44:30.265Z,77.19
2019-05-09T01:46:57.308Z,77.09
2019-05-09T01:49:24.397Z,76.92
2019-05-09T01:51:53.553Z,76.39
2019-05-09T01:54:23.696Z,76.62
2019-05-09T01:56:51.080Z,76.69
2019-05-09T01:59:20.790Z,76.36
2019-05-09T02:01:47.988Z,76.37
2019-05-09T02:04:15.431Z,76.30
2019-05-09T02:06:44.437Z,76.66
2019-05-09T02:09:13.877Z,76.82
2019-05-09T02:11:43.289Z,76.70
2019-05-09T02:14:13.526Z,77.11
2019-05-09T02:17:00.296Z,77.13
2019-05-09T02:19:33.658Z,77.26
2019-05-09T02:22:00.723Z,77.76
2019-05-09T02:24:27.743Z,77.94
2019-05-09T02:26:54.797Z,77.66
2019-05-09T02:29:23.173Z,77.33
2019-05-09T02:31:50.563Z,77.34
2019-05-09T02:34:17.626Z,77.62
2019-05-09T02:36:49.394Z,77.45
2019-05-09T02:39:18.633Z,77.93
2019-05-09T02:41:59.593Z,78.33
2019-05-09T02:44:13.784Z,78.88
2019-05-09T02:46:58.856Z,79.07
2019-05-09T02:49:28.451Z,79.27
2019-05-09T02:51:54.699Z,79.30
2019-05-09T02:54:22.064Z,79.25
2019-05-09T02:56:49.520Z,79.01
2019-05-09T02:59:24.683Z,78.90
2019-05-09T03:02:01.847Z,78.72
2019-05-09T03:04:30.345Z,78.85
2019-05-09T03:06:59.633Z,78.98
2019-05-09T03:09:30.504Z,78.87
2019-05-09T03:11:58.871Z,79.10
2019-05-09T03:14:28.619Z,78.78
2019-05-09T03:16:58.344Z,78.30
2019-05-09T03:19:24.461Z,77.76
2019-05-09T03:21:58.438Z,77.38
2019-05-09T03:24:28.571Z,76.93
2019-05-09T03:26:59.745Z,76.83
2019-05-09T03:29:40.295Z,76.17
2019-05-09T03:32:09.152Z,76.42
2019-05-09T03:34:37.596Z,75.96
2019-05-09T03:37:04.630Z,76.16
2019-05-09T03:39:31.709Z,76.28
2019-05-09T03:42:00.045Z,76.83
2019-05-09T03:44:28.292Z,76.56
2019-05-09T03:47:02.478Z,75.98
2019-05-09T03:49:29.504Z,75.58
2019-05-09T03:51:58.451Z,75.63
2019-05-09T03:54:28.269Z,75.75
2019-05-09T03:57:04.119Z,75.75
2019-05-09T03:59:31.184Z,75.85
2019-05-09T04:01:59.156Z,75.64
2019-05-09T04:04:28.108Z,74.79
2019-05-09T04:06:55.315Z,73.93
2019-05-09T04:09:22.421Z,73.86
2019-05-09T04:11:49.613Z,74.05
2019-05-09T04:14:21.566Z,74.55
2019-05-09T04:16:51.931Z,74.71
2019-05-09T04:19:19.212Z,74.45
2019-05-09T04:21:48.537Z,74.65
2019-05-09T04:24:17.767Z,74.57
2019-05-09T04:26:50.655Z,74.30
2019-05-09T04:31:57.664Z,73.61
2019-05-09T04:34:24.742Z,72.80
2019-05-09T04:36:51.783Z,72.52
2019-05-09T04:39:23.356Z,71.45
2019-05-09T04:41:48.678Z,71.10
2019-05-09T04:44:28.377Z,71.27
2019-05-09T04:47:01.698Z,71.29
2019-05-09T04:49:24.860Z,70.60
2019-05-09T04:51:51.973Z,71.34
2019-05-09T04:54:19.316Z,71.34
2019-05-09T04:57:27.886Z,71.41
2019-05-09T04:59:57.519Z,71.51
2019-05-09T05:02:39.328Z,71.66
2019-05-09T05:05:07.781Z,71.72
2019-05-09T05:07:37.472Z,72.08
2019-05-09T05:10:04.618Z,72.04
2019-05-09T05:12:31.648Z,71.58
2019-05-09T05:14:58.723Z,71.59
2019-05-09T05:17:28.350Z,71.61
2019-05-09T05:19:55.115Z,71.04
2019-05-09T05:22:38.717Z,69.21
2019-05-09T05:25:09.307Z,67.24
2019-05-09T05:27:38.234Z,66.47
2019-05-09T05:30:07.539Z,65.24
2019-05-09T05:32:54.468Z,65.65
2019-05-09T05:35:43.907Z,66.61
2019-05-09T05:38:11.294Z,67.00
2019-05-09T05:40:45.323Z,67.13
2019-05-09T05:43:08.743Z,66.95
2019-05-09T05:45:48.529Z,65.81
2019-05-09T05:48:19.771Z,65.51
2019-05-09T05:50:48.777Z,63.20
2019-05-09T05:53:18.090Z,62.35
2019-05-09T05:55:45.160Z,62.27
2019-05-09T05:58:12.256Z,59.21
2019-05-09T06:00:39.379Z,59.77
2019-05-09T06:03:08.764Z,58.32
2019-05-09T06:05:35.555Z,57.38
2019-05-09T06:08:02.620Z,58.77
2019-05-09T06:10:29.635Z,57.46
2019-05-09T06:12:57.506Z,57.49
2019-05-09T06:15:24.927Z,57.12
2019-05-09T06:17:51.985Z,57.22
2019-05-09T06:20:19.066Z,59.31
2019-05-09T06:22:47.816Z,57.69
2019-05-09T06:25:20.193Z,59.41
2019-05-09T06:27:48.061Z,61.37
2019-05-09T06:30:28.034Z,62.44
2019-05-09T06:32:54.952Z,64.04
2019-05-09T06:35:23.091Z,66.82
2019-05-09T06:37:50.476Z,68.69
2019-05-09T06:40:21.544Z,68.54
2019-05-09T06:42:49.027Z,68.16
2019-05-09T06:45:42.543Z,67.78
2019-05-09T06:48:10.170Z,67.53
2019-05-09T06:50:37.883Z,66.52
2019-05-09T06:53:07.808Z,65.90
2019-05-09T06:55:34.397Z,64.84
2019-05-09T06:58:21.108Z,64.14
2019-05-09T07:00:53.488Z,64.06
2019-05-09T07:03:23.814Z,66.00
2019-05-09T07:05:58.939Z,65.91
2019-05-09T07:08:34.692Z,66.11
2019-05-09T07:11:01.735Z,67.31
2019-05-09T07:13:31.789Z,67.91
2019-05-09T07:16:00.720Z,67.35
2019-05-09T07:18:27.807Z,66.57
2019-05-09T07:20:54.813Z,68.03
2019-05-09T07:23:21.859Z,68.80
2019-05-09T07:26:07.863Z,71.47
2019-05-09T07:28:37.515Z,71.93
2019-05-09T07:31:11.745Z,72.33
2019-05-09T07:34:08.554Z,73.37
2019-05-09T07:36:38.419Z,73.36
2019-05-09T07:39:08.850Z,74.03
2019-05-09T07:41:38.216Z,73.14
2019-05-09T07:44:04.803Z,71.82
2019-05-09T07:46:58.531Z,69.98
2019-05-09T07:49:28.854Z,68.49
2019-05-09T07:51:59.051Z,68.42
2019-05-09T07:54:29.341Z,68.30
2019-05-09T07:56:58.036Z,66.08
2019-05-09T07:59:27.377Z,65.37
2019-05-09T08:01:54.319Z,64.41
2019-05-09T08:04:21.398Z,64.87
2019-05-09T08:06:49.659Z,67.36
2019-05-09T08:09:18.648Z,68.78
2019-05-09T08:11:48.155Z,70.76
2019-05-09T08:14:17.428Z,71.75
2019-05-09T08:16:44.074Z,72.30
2019-05-09T08:19:11.368Z,71.47
2019-05-09T08:21:38.571Z,70.00
2019-05-09T08:24:07.904Z,70.05
2019-05-09T08:26:34.873Z,70.07
2019-05-09T08:29:02.355Z,68.02
2019-05-09T08:31:29.357Z,67.54
2019-05-09T08:33:59.290Z,66.16
2019-05-09T08:36:28.171Z,68.68
2019-05-09T08:38:58.594Z,69.90
2019-05-09T08:41:29.096Z,70.92
2019-05-09T08:43:57.559Z,72.12
2019-05-09T08:46:24.901Z,73.01
2019-05-09T08:48:52.287Z,72.70
2019-05-09T08:51:51.882Z,73.96
2019-05-09T08:54:29.443Z,72.93
2019-05-09T08:56:58.247Z,73.60
2019-05-09T08:59:27.599Z,73.06
2019-05-09T09:02:12.210Z,72.19
2019-05-09T09:04:25.067Z,71.76
2019-05-09T09:06:52.123Z,72.44
2019-05-09T09:09:19.287Z,73.17
2019-05-09T09:11:47.838Z,70.82
2019-05-09T09:14:15.150Z,71.32
2019-05-09T09:16:47.947Z,70.54
2019-05-09T09:19:18.754Z,68.62
2019-05-09T09:21:49.135Z,69.96
2019-05-09T09:24:17.581Z,69.33
2019-05-09T09:26:48.646Z,68.33
2019-05-09T09:29:28.459Z,69.58
2019-05-09T09:31:57.611Z,68.86
2019-05-09T09:34:27.136Z,69.91
2019-05-09T09:36:55.833Z,69.08
2019-05-09T09:39:44.796Z,68.81
2019-05-09T09:42:19.988Z,67.82
2019-05-09T09:44:48.226Z,69.56
2019-05-09T09:47:29.953Z,69.45
2019-05-09T09:50:00.703Z,67.48
2019-05-09T09:52:29.336Z,70.32
2019-05-09T09:54:58.198Z,69.80
2019-05-09T09:57:25.591Z,70.82
2019-05-09T09:59:58.372Z,71.56
2019-05-09T10:02:29.417Z,72.25
2019-05-09T10:04:58.345Z,72.55
2019-05-09T10:07:27.827Z,73.36
2019-05-09T10:09:55.570Z,73.69
2019-05-09T10:12:25.600Z,73.87
2019-05-09T10:15:01.492Z,73.67
2019-05-09T10:17:52.908Z,72.05
2019-05-09T10:20:31.198Z,72.11
2019-05-09T10:23:10.116Z,70.56
2019-05-09T10:25:33.742Z,68.16
2019-05-09T10:28:08.869Z,69.12
2019-05-09T10:30:48.365Z,66.94
2019-05-09T10:33:25.095Z,66.55
2019-05-09T10:36:04.419Z,65.32
2019-05-09T10:38:31.742Z,65.90
2019-05-09T10:41:02.509Z,67.87
2019-05-09T10:44:19.556Z,65.86
2019-05-09T10:47:14.088Z,66.56
2019-05-09T10:49:52.049Z,68.17
2019-05-09T10:52:21.286Z,70.49
2019-05-09T10:54:52.768Z,70.22
2019-05-09T10:57:30.885Z,69.53
2019-05-09T10:59:57.945Z,69.95
2019-05-09T11:02:29.680Z,70.47
2019-05-09T11:04:59.426Z,70.38
2019-05-09T11:07:29.977Z,70.60
2019-05-09T11:09:59.790Z,69.32
2019-05-09T11:12:33.994Z,67.37
2019-05-09T11:18:08.179Z,66.09
2019-05-09T11:20:45.446Z,67.25
2019-05-09T11:23:20.867Z,68.66
2019-05-09T11:26:20.926Z,68.72
2019-05-09T11:29:18.592Z,67.93
2019-05-09T11:31:52.722Z,68.93
2019-05-09T11:34:27.307Z,69.65
2019-05-09T11:37:02.927Z,68.83
2019-05-09T11:39:39.738Z,68.24
2019-05-09T11:42:20.725Z,69.25
2019-05-09T11:44:48.167Z,70.33
2019-05-09T11:47:28.475Z,69.11
2019-05-09T11:49:44.261Z,68.96
2019-05-09T11:52:11.705Z,69.50
2019-05-09T11:54:39.103Z,69.30
2019-05-09T11:57:09.571Z,69.51
2019-05-09T11:59:38.007Z,69.67
2019-05-09T12:02:05.505Z,68.70
2019-05-09T12:04:32.594Z,69.48
2019-05-09T12:06:59.708Z,70.47
2019-05-09T12:09:28.887Z,70.92
2019-05-09T12:11:59.255Z,70.35
2019-05-09T12:14:28.175Z,69.60
2019-05-09T12:16:55.836Z,69.83
2019-05-09T12:19:22.951Z,70.04
2019-05-09T12:21:50.307Z,67.97
2019-05-09T12:24:18.347Z,66.67
2019-05-09T12:26:48.209Z,68.03
2019-05-09T12:29:15.063Z,66.72
2019-05-09T12:31:43.294Z,67.68
2019-05-09T12:34:10.338Z,69.18
2019-05-09T12:36:39.743Z,70.20
2019-05-09T12:39:08.714Z,69.03
2019-05-09T12:41:38.455Z,70.29
2019-05-09T12:44:05.364Z,71.90
2019-05-09T12:46:34.394Z,72.85
2019-05-09T12:49:01.501Z,72.15
2019-05-09T12:51:29.704Z,72.25
2019-05-09T12:53:58.044Z,71.68
2019-05-09T12:56:25.343Z,73.30
2019-05-09T12:58:52.464Z,73.83
2019-05-09T13:01:19.722Z,73.57
2019-05-09T13:03:50.448Z,73.72
2019-05-09T13:06:19.937Z,73.61
2019-05-09T13:08:48.474Z,74.49
2019-05-09T13:11:15.621Z,74.89
2019-05-09T13:13:42.797Z,74.11
2019-05-09T13:16:20.535Z,73.78
2019-05-09T13:19:05.292Z,73.88
2019-05-09T13:21:33.227Z,73.83
2019-05-09T13:24:02.208Z,74.02
2019-05-09T13:26:30.694Z,74.14
2019-05-09T13:28:58.817Z,74.52
2019-05-09T13:31:29.358Z,75.46
2019-05-09T13:33:58.300Z,75.58
2019-05-09T13:36:28.534Z,75.17
2019-05-09T13:39:01.270Z,74.51
2019-05-09T13:41:24.176Z,74.58
2019-05-09T13:43:58.294Z,75.38
2019-05-09T13:46:20.861Z,75.85
2019-05-09T13:49:05.858Z,75.80
2019-05-09T13:51:18.349Z,75.43
2019-05-09T13:53:48.196Z,75.31
2019-05-09T13:56:15.028Z,76.06
2019-05-09T13:58:44.001Z,75.77
2019-05-09T14:01:11.105Z,75.04
2019-05-09T14:03:38.818Z,74.24
2019-05-09T14:06:09.094Z,74.58
2019-05-09T14:08:38.938Z,74.24
2019-05-09T14:11:09.676Z,72.05
2019-05-09T14:13:38.660Z,69.98
2019-05-09T14:16:19.047Z,70.03
2019-05-09T14:18:38.510Z,70.78
2019-05-09T14:21:07.698Z,72.27
2019-05-09T14:23:37.398Z,73.14
2019-05-09T14:26:03.968Z,71.86
2019-05-09T14:28:31.028Z,71.38
2019-05-09T14:30:59.510Z,71.48
2019-05-09T14:33:29.618Z,70.01
2019-05-09T14:35:56.754Z,70.12
2019-05-09T14:38:23.850Z,71.16
2019-05-09T14:40:50.966Z,71.78
2019-05-09T14:43:18.609Z,72.42
2019-05-09T14:45:48.344Z,73.57
2019-05-09T14:48:15.388Z,74.29
2019-05-09T14:50:42.488Z,74.87
2019-05-09T14:53:09.866Z,75.52
2019-05-09T14:55:39.147Z,75.72
2019-05-09T14:58:07.830Z,75.70
2019-05-09T15:00:35.039Z,75.47
2019-05-09T15:03:02.384Z,75.42
2019-05-09T15:05:29.468Z,75.78
2019-05-09T15:07:59.245Z,75.21
2019-05-09T15:10:25.615Z,70.64
2019-05-09T15:12:52.668Z,67.83
2019-05-09T15:15:21.012Z,73.79
2019-05-09T15:17:49.219Z,75.20
2019-05-09T15:20:17.971Z,68.53
2019-05-09T15:22:47.711Z,66.16
2019-05-09T15:25:19.106Z,63.59
2019-05-09T15:27:47.533Z,68.63
2019-05-09T15:30:14.483Z,72.97
2019-05-09T15:32:43.421Z,71.87
2019-05-09T15:35:10.601Z,71.01
2019-05-09T15:37:38.668Z,72.59
2019-05-09T15:40:08.752Z,71.94
2019-05-09T15:42:38.877Z,68.82
2019-05-09T15:45:07.707Z,62.93
2019-05-09T15:47:37.648Z,63.85
2019-05-09T15:50:16.653Z,59.86
2019-05-09T15:52:38.066Z,60.19
2019-05-09T15:55:09.544Z,63.95
2019-05-09T15:57:37.835Z,67.56
2019-05-09T16:00:08.231Z,69.84
2019-05-09T16:02:35.478Z,69.65
2019-05-09T16:05:02.919Z,68.91
2019-05-09T16:07:30.257Z,69.17
2019-05-09T16:09:57.997Z,69.63
2019-05-09T16:12:27.581Z,70.14
2019-05-09T16:15:09.331Z,70.39
2019-05-09T16:17:48.733Z,69.39
2019-05-09T16:20:22.943Z,69.54
2019-05-09T16:22:48.230Z,67.99
2019-05-09T16:25:15.130Z,68.41
2019-05-09T16:27:42.478Z,69.73
2019-05-09T16:30:09.945Z,69.92
2019-05-09T16:32:37.786Z,68.91
2019-05-09T16:35:07.743Z,70.08
2019-05-09T16:37:56.371Z,68.68
2019-05-09T16:40:05.299Z,69.44
2019-05-09T16:42:32.356Z,68.93
2019-05-09T16:44:59.554Z,68.46
2019-05-09T16:47:28.477Z,67.27
2019-05-09T16:49:57.902Z,66.38
2019-05-09T16:52:24.727Z,63.26
2019-05-09T16:55:02.664Z,61.17
2019-05-09T16:57:29.854Z,60.70
2019-05-09T16:59:56.896Z,60.43
2019-05-09T17:02:25.134Z,60.10
2019-05-09T17:04:52.410Z,64.34
2019-05-09T17:07:19.519Z,63.92
2019-05-09T17:09:48.479Z,65.54
2019-05-09T17:12:15.828Z,64.96
2019-05-09T17:14:44.059Z,64.36
2019-05-09T17:17:11.148Z,65.02
2019-05-09T17:19:38.326Z,65.34
2019-05-09T17:22:18.714Z,65.65
2019-05-09T17:24:48.449Z,66.54
2019-05-09T17:27:18.205Z,66.20
2019-05-09T17:29:47.739Z,65.95
2019-05-09T17:32:14.154Z,66.47
2019-05-09T17:34:42.526Z,66.23
2019-05-09T17:37:10.450Z,65.85
2019-05-09T17:39:44.284Z,67.47
2019-05-09T17:42:11.488Z,69.43
2019-05-09T17:44:40.354Z,71.82
2019-05-09T17:47:08.508Z,70.24
2019-05-09T17:49:40.228Z,70.20
2019-05-09T17:52:13.308Z,66.64
2019-05-09T17:54:40.694Z,65.64
2019-05-09T17:57:08.892Z,67.79
2019-05-09T17:59:36.087Z,68.07
2019-05-09T18:02:05.322Z,68.85
2019-05-09T18:04:32.714Z,69.84
2019-05-09T18:06:59.916Z,70.02
2019-05-09T18:09:28.572Z,68.33
2019-05-09T18:11:57.901Z,69.36
2019-05-09T18:14:27.999Z,70.03
2019-05-09T18:16:58.345Z,71.73
2019-05-09T18:19:30.991Z,72.85
2019-05-09T18:21:58.388Z,74.08
2019-05-09T18:24:25.557Z,74.76
2019-05-09T18:26:52.673Z,74.19
2019-05-09T18:29:22.185Z,73.95
2019-05-09T18:32:07.726Z,73.68
2019-05-09T18:34:37.872Z,73.58
2019-05-09T18:37:04.751Z,73.59
2019-05-09T18:39:33.082Z,73.45
2019-05-09T18:42:02.684Z,73.21
2019-05-09T18:44:30.100Z,72.87
2019-05-09T18:46:57.797Z,72.48
2019-05-09T18:49:25.357Z,72.34
2019-05-09T18:52:03.258Z,72.87
2019-05-09T18:54:21.749Z,72.89
2019-05-09T18:56:48.831Z,73.02
2019-05-09T18:59:15.915Z,73.27
2019-05-09T19:01:43.561Z,73.00
2019-05-09T19:04:10.624Z,72.79
2019-05-09T19:06:39.885Z,72.66
2019-05-09T19:09:07.365Z,72.42
2019-05-09T19:11:34.687Z,73.08
2019-05-09T19:14:02.972Z,73.87
2019-05-09T19:16:46.077Z,75.07
2019-05-09T19:19:19.594Z,76.27
2019-05-09T19:21:50.343Z,77.10
2019-05-09T19:24:17.521Z,77.05
2019-05-09T19:26:49.630Z,77.05
2019-05-09T19:29:19.668Z,76.85
2019-05-09T19:31:52.264Z,76.93
2019-05-09T19:34:21.561Z,77.24
2019-05-09T19:36:52.896Z,76.78
2019-05-09T19:39:24.936Z,76.03
2019-05-09T19:41:54.035Z,75.35
2019-05-09T19:44:22.769Z,74.87
2019-05-09T19:46:50.191Z,74.34
2019-05-09T19:49:19.181Z,74.05
2019-05-09T19:51:46.808Z,73.84
2019-05-09T19:54:13.983Z,73.58
2019-05-09T19:56:42.915Z,73.31
2019-05-09T19:59:10.194Z,73.44
2019-05-09T20:01:38.825Z,73.20
2019-05-09T20:04:05.924Z,73.13
2019-05-09T20:06:33.102Z,72.42
2019-05-09T20:09:02.481Z,71.93
2019-05-09T20:11:55.714Z,71.52
2019-05-09T20:14:26.370Z,72.08
2019-05-09T20:16:55.888Z,71.99
2019-05-09T20:19:23.479Z,72.05
2019-05-09T20:21:50.667Z,72.39
2019-05-09T20:24:17.930Z,72.52
2019-05-09T20:26:45.390Z,73.01
2019-05-09T20:29:16.638Z,73.38
2019-05-09T20:31:45.631Z,73.25
2019-05-09T20:34:12.685Z,73.30
2019-05-09T20:36:41.023Z,73.24
2019-05-09T20:39:08.144Z,73.21
2019-05-09T20:41:40.641Z,72.88
2019-05-09T20:44:07.765Z,73.00
2019-05-09T20:46:34.928Z,72.99
2019-05-09T20:49:02.142Z,73.33
2019-05-09T20:51:29.401Z,73.48
2019-05-09T20:53:56.577Z,73.47
2019-05-09T20:56:23.630Z,73.50
2019-05-09T20:58:53.075Z,73.57
2019-05-09T21:01:22.280Z,73.12
2019-05-09T21:04:03.036Z,72.85
2019-05-09T21:06:30.224Z,72.41
2019-05-09T21:08:57.350Z,72.65
2019-05-09T21:11:24.659Z,73.08
2019-05-09T21:13:51.804Z,73.04
2019-05-09T21:16:19.138Z,73.09
2019-05-09T21:18:47.746Z,73.22
2019-05-09T21:21:14.873Z,73.04
2019-05-09T21:23:42.248Z,73.06
2019-05-09T21:26:09.382Z,73.39
2019-05-09T21:28:36.453Z,73.63
2019-05-09T21:31:03.595Z,74.39
2019-05-09T21:33:30.675Z,74.63
2019-05-09T21:35:57.852Z,75.07
2019-05-09T21:38:26.201Z,75.37
2019-05-09T21:40:53.398Z,75.27
2019-05-09T21:43:20.759Z,75.32
2019-05-09T21:45:48.041Z,75.66
2019-05-09T21:48:15.114Z,75.81
2019-05-09T21:50:42.174Z,75.72
2019-05-09T21:53:09.327Z,75.45
2019-05-09T21:55:38.415Z,75.19
2019-05-09T21:58:05.540Z,75.13
2019-05-09T22:00:36.439Z,75.21
2019-05-09T22:03:06.172Z,75.42
2019-05-09T22:05:33.337Z,75.36
2019-05-09T22:08:00.519Z,74.39
2019-05-09T22:10:27.589Z,73.41
2019-05-09T22:12:55.094Z,72.49
2019-05-09T22:15:22.310Z,71.78
2019-05-09T22:17:49.518Z,71.17
2019-05-09T22:20:16.683Z,71.24
2019-05-09T22:22:44.135Z,71.01
2019-05-09T22:25:11.788Z,71.18
2019-05-09T22:27:39.412Z,70.96
2019-05-09T22:30:08.801Z,71.07
2019-05-09T22:32:38.766Z,70.66
2019-05-09T22:35:06.315Z,70.36
2019-05-09T22:37:33.706Z,70.24
2019-05-09T22:40:00.769Z,70.26
2019-05-09T22:42:27.977Z,70.36
2019-05-09T22:44:55.070Z,70.01
2019-05-09T22:47:22.334Z,69.98
2019-05-09T22:49:52.649Z,70.12
2019-05-09T22:52:20.216Z,70.33
2019-05-09T22:54:48.630Z,70.71
2019-05-09T22:57:17.546Z,71.28
2019-05-09T22:59:44.633Z,71.62
2019-05-09T23:02:11.705Z,71.75
2019-05-09T23:04:38.815Z,71.92
2019-05-09T23:07:07.330Z,71.79
2019-05-09T23:09:35.563Z,71.47
2019-05-09T23:12:04.423Z,71.43
2019-05-09T23:14:31.687Z,70.93
2019-05-09T23:16:58.892Z,70.54
2019-05-09T23:19:25.987Z,70.53
2019-05-09T23:21:53.941Z,70.49
2019-05-09T23:24:28.594Z,70.54
2019-05-09T23:26:51.282Z,70.61
2019-05-09T23:29:18.390Z,70.75
2019-05-09T23:31:54.984Z,70.32
2019-05-09T23:34:22.124Z,70.20
2019-05-09T23:36:49.163Z,70.35
2019-05-09T23:39:21.654Z,70.71
2019-05-09T23:41:48.876Z,71.20
2019-05-09T23:44:15.943Z,71.14
2019-05-09T23:46:43.098Z,71.05
2019-05-09T23:49:11.240Z,71.08
2019-05-09T23:51:46.777Z,71.10
2019-05-09T23:54:45.236Z,71.11
2019-05-09T23:57:22.039Z,71.04
